createdAt,value
2019-01-24T00:02:27.381Z,-3.50
2019-01-24T00:04:56.200Z,-3.50
2019-01-24T00:07:24.876Z,-3.50
2019-01-24T00:09:53.649Z,-3.60
2019-01-24T00:12:22.360Z,-3.60
2019-01-24T00:14:51.153Z,-3.60
2019-01-24T00:17:19.875Z,-3.60
2019-01-24T00:19:48.695Z,-3.60
2019-01-24T00:22:17.504Z,-3.70
2019-01-24T00:24:46.203Z,-3.60
2019-01-24T00:27:15.001Z,-3.70
2019-01-24T00:29:43.823Z,-3.60
2019-01-24T00:32:12.582Z,-3.70
2019-01-24T00:34:41.302Z,-3.70
2019-01-24T00:37:10.180Z,-3.70
2019-01-24T00:39:39.019Z,-3.80
2019-01-24T00:42:07.786Z,-3.70
2019-01-24T00:44:36.561Z,-3.70
2019-01-24T00:47:05.370Z,-3.70
2019-01-24T00:49:34.238Z,-3.80
2019-01-24T00:52:02.950Z,-3.80
2019-01-24T00:54:31.760Z,-3.90
2019-01-24T00:57:00.896Z,-3.90
2019-01-24T00:59:29.687Z,-3.90
2019-01-24T01:01:58.439Z,-3.90
2019-01-24T01:04:29.784Z,-3.90
2019-01-24T01:06:57.687Z,-3.90
2019-01-24T01:09:26.472Z,-3.90
2019-01-24T01:11:55.193Z,-4.00
2019-01-24T01:14:23.915Z,-4.10
2019-01-24T01:16:52.656Z,-4.10
2019-01-24T01:19:21.392Z,-4.20
2019-01-24T01:21:50.152Z,-4.20
2019-01-24T01:24:18.984Z,-4.10
2019-01-24T01:26:47.725Z,-4.20
2019-01-24T01:29:16.441Z,-4.10
2019-01-24T01:31:45.187Z,-4.10
2019-01-24T01:34:13.963Z,-4.10
2019-01-24T01:36:42.750Z,-4.10
2019-01-24T01:39:11.510Z,-4.20
2019-01-24T01:41:40.399Z,-4.10
2019-01-24T01:44:09.156Z,-4.20
2019-01-24T01:46:37.975Z,-4.30
2019-01-24T01:49:06.785Z,-4.30
2019-01-24T01:51:35.694Z,-4.30
2019-01-24T01:54:04.468Z,-4.40
2019-01-24T01:56:33.213Z,-4.40
2019-01-24T01:59:02.010Z,-4.40
2019-01-24T02:01:30.735Z,-4.30
2019-01-24T02:03:59.506Z,-4.30
2019-01-24T02:06:28.200Z,-4.30
2019-01-24T02:08:57.062Z,-4.20
2019-01-24T02:11:25.794Z,-4.20
2019-01-24T02:13:54.527Z,-4.30
2019-01-24T02:16:23.278Z,-4.20
2019-01-24T02:18:52.305Z,-4.30
2019-01-24T02:21:21.133Z,-4.40
2019-01-24T02:23:49.952Z,-4.40
2019-01-24T02:26:18.728Z,-4.40
2019-01-24T02:28:47.579Z,-4.40
2019-01-24T02:31:16.377Z,-4.40
2019-01-24T02:33:45.175Z,-4.40
2019-01-24T02:36:14.024Z,-4.40
2019-01-24T02:38:42.742Z,-4.40
2019-01-24T02:41:11.661Z,-4.50
2019-01-24T02:43:40.363Z,-4.40
2019-01-24T02:46:09.221Z,-4.50
2019-01-24T02:48:37.949Z,-4.50
2019-01-24T02:51:06.751Z,-4.50
2019-01-24T02:53:35.545Z,-4.50
2019-01-24T02:56:04.391Z,-4.40
2019-01-24T02:58:33.331Z,-4.50
2019-01-24T03:01:02.064Z,-4.50
2019-01-24T03:03:30.819Z,-4.70
2019-01-24T03:05:59.628Z,-4.60
2019-01-24T03:08:28.385Z,-4.60
2019-01-24T03:10:57.134Z,-4.70
2019-01-24T03:13:25.876Z,-4.70
2019-01-24T03:15:54.582Z,-4.70
2019-01-24T03:18:23.315Z,-4.80
2019-01-24T03:20:52.026Z,-4.70
2019-01-24T03:23:20.875Z,-4.80
2019-01-24T03:25:49.603Z,-4.80
2019-01-24T03:28:18.554Z,-4.70
2019-01-24T03:30:47.377Z,-4.70
2019-01-24T03:33:16.199Z,-4.70
2019-01-24T03:35:44.956Z,-4.70
2019-01-24T03:38:13.691Z,-4.70
2019-01-24T03:40:42.399Z,-4.70
2019-01-24T03:43:11.145Z,-4.70
2019-01-24T03:45:39.873Z,-4.70
2019-01-24T03:48:08.578Z,-4.70
2019-01-24T03:50:37.305Z,-4.70
2019-01-24T03:53:06.007Z,-4.60
2019-01-24T03:55:34.739Z,-4.60
2019-01-24T03:58:03.429Z,-4.70
2019-01-24T04:00:32.189Z,-4.60
2019-01-24T04:03:00.965Z,-4.50
2019-01-24T04:05:29.694Z,-4.60
2019-01-24T04:07:58.420Z,-4.50
2019-01-24T04:10:27.327Z,-4.60
2019-01-24T04:12:56.015Z,-4.40
2019-01-24T04:15:26.238Z,-4.50
2019-01-24T04:17:54.926Z,-4.50
2019-01-24T04:20:23.849Z,-4.40
2019-01-24T04:22:52.650Z,-4.40
2019-01-24T04:25:21.570Z,-4.40
2019-01-24T04:27:50.312Z,-4.30
2019-01-24T04:30:20.751Z,-4.40
2019-01-24T04:32:49.546Z,-4.30
2019-01-24T04:35:20.079Z,-4.30
2019-01-24T04:37:48.748Z,-4.30
2019-01-24T04:40:18.102Z,-4.30
2019-01-24T04:42:46.849Z,-4.20
2019-01-24T04:45:16.485Z,-4.20
2019-01-24T04:47:45.217Z,-4.10
2019-01-24T04:50:15.211Z,-4.10
2019-01-24T04:52:44.058Z,-4.00
2019-01-24T04:55:14.296Z,-4.00
2019-01-24T04:57:42.996Z,-4.00
2019-01-24T05:00:15.039Z,-4.00
2019-01-24T05:02:43.806Z,-3.80
2019-01-24T05:05:12.539Z,-3.90
2019-01-24T05:07:41.261Z,-3.90
2019-01-24T05:10:09.986Z,-3.90
2019-01-24T05:12:38.723Z,-3.80
2019-01-24T05:15:07.761Z,-3.80
2019-01-24T05:17:36.487Z,-3.80
2019-01-24T05:20:06.243Z,-3.80
2019-01-24T05:22:34.997Z,-3.80
2019-01-24T05:25:04.114Z,-3.70
2019-01-24T05:27:32.837Z,-3.70
2019-01-24T05:30:01.554Z,-3.70
2019-01-24T05:32:30.282Z,-3.60
2019-01-24T05:34:59.114Z,-3.60
2019-01-24T05:37:28.048Z,-3.60
2019-01-24T05:39:56.720Z,-3.50
2019-01-24T05:42:25.451Z,-3.50
2019-01-24T05:44:54.189Z,-3.50
2019-01-24T05:47:22.880Z,-3.60
2019-01-24T05:49:51.659Z,-3.50
2019-01-24T05:52:20.389Z,-3.50
2019-01-24T05:54:49.199Z,-3.50
2019-01-24T05:57:17.899Z,-3.40
2019-01-24T05:59:46.650Z,-3.30
2019-01-24T06:02:15.395Z,-3.30
2019-01-24T06:04:44.130Z,-3.40
2019-01-24T06:07:12.845Z,-3.30
2019-01-24T06:09:41.604Z,-3.30
2019-01-24T06:12:10.338Z,-3.20
2019-01-24T06:14:39.168Z,-3.30
2019-01-24T06:17:07.910Z,-3.20
2019-01-24T06:19:36.757Z,-3.20
2019-01-24T06:22:05.594Z,-3.20
2019-01-24T06:24:34.397Z,-3.20
2019-01-24T06:27:03.361Z,-3.20
2019-01-24T06:29:32.315Z,-3.10
2019-01-24T06:32:01.038Z,-3.10
2019-01-24T06:34:29.839Z,-3.00
2019-01-24T06:36:58.590Z,-3.10
2019-01-24T06:39:27.321Z,-3.20
2019-01-24T06:41:56.308Z,-3.10
2019-01-24T06:44:25.117Z,-3.00
2019-01-24T06:46:53.820Z,-3.10
2019-01-24T06:49:22.552Z,-3.10
2019-01-24T06:51:51.588Z,-3.10
2019-01-24T06:54:20.301Z,-3.10
2019-01-24T06:56:49.160Z,-3.10
2019-01-24T06:59:18.031Z,-3.20
2019-01-24T07:01:46.738Z,-3.20
2019-01-24T07:04:15.479Z,-3.20
2019-01-24T07:06:44.306Z,-3.20
2019-01-24T07:09:13.045Z,-3.20
2019-01-24T07:11:41.766Z,-3.10
2019-01-24T07:14:10.550Z,-3.10
2019-01-24T07:16:39.298Z,-3.00
2019-01-24T07:19:08.056Z,-3.10
2019-01-24T07:21:39.843Z,-3.10
2019-01-24T07:24:08.581Z,-3.00
2019-01-24T07:26:37.315Z,-3.00
2019-01-24T07:29:06.072Z,-2.90
2019-01-24T07:31:34.770Z,-2.90
2019-01-24T07:34:03.521Z,-3.00
2019-01-24T07:36:32.250Z,-3.00
2019-01-24T07:39:00.954Z,-3.00
2019-01-24T07:41:29.744Z,-3.00
2019-01-24T07:43:58.445Z,-3.10
2019-01-24T07:46:27.201Z,-3.10
2019-01-24T07:48:55.941Z,-3.00
2019-01-24T07:51:24.690Z,-3.00
2019-01-24T07:53:53.435Z,-3.00
2019-01-24T07:56:22.411Z,-3.00
2019-01-24T07:58:51.158Z,-3.00
2019-01-24T08:01:20.060Z,-3.00
2019-01-24T08:03:48.817Z,-2.90
2019-01-24T08:06:17.758Z,-2.90
2019-01-24T08:08:46.501Z,-2.90
2019-01-24T08:11:15.361Z,-2.80
2019-01-24T08:13:44.104Z,-2.70
2019-01-24T08:16:12.908Z,-2.80
2019-01-24T08:18:41.790Z,-2.70
2019-01-24T08:21:10.617Z,-2.70
2019-01-24T08:23:39.801Z,-2.80
2019-01-24T08:26:08.703Z,-2.90
2019-01-24T08:28:37.578Z,-2.80
2019-01-24T08:31:06.512Z,-2.90
2019-01-24T08:33:35.497Z,-2.80
2019-01-24T08:36:04.284Z,-2.70
2019-01-24T08:38:33.419Z,-2.70
2019-01-24T08:41:02.464Z,-2.80
2019-01-24T08:43:31.387Z,-2.60
2019-01-24T08:46:00.190Z,-2.60
2019-01-24T08:48:28.967Z,-2.70
2019-01-24T08:50:57.846Z,-2.60
2019-01-24T08:53:26.746Z,-2.60
2019-01-24T08:55:55.674Z,-2.70
2019-01-24T08:58:24.423Z,-2.70
2019-01-24T09:00:53.227Z,-2.80
2019-01-24T09:03:24.287Z,-2.80
2019-01-24T09:05:53.131Z,-2.90
2019-01-24T09:08:21.806Z,-2.90
2019-01-24T09:10:50.615Z,-2.80
2019-01-24T09:13:19.829Z,-2.70
2019-01-24T09:15:48.546Z,-2.60
2019-01-24T09:18:17.294Z,-2.60
2019-01-24T09:20:46.151Z,-2.60
2019-01-24T09:23:15.104Z,-2.60
2019-01-24T09:25:43.970Z,-2.60
2019-01-24T09:28:15.086Z,-2.70
2019-01-24T09:30:43.454Z,-2.60
2019-01-24T09:33:12.398Z,-2.60
2019-01-24T09:35:41.177Z,-2.60
2019-01-24T09:38:10.089Z,-2.60
2019-01-24T09:40:38.855Z,-2.50
2019-01-24T09:43:07.718Z,-2.40
2019-01-24T09:45:36.456Z,-2.40
2019-01-24T09:48:06.343Z,-2.50
2019-01-24T09:50:35.062Z,-2.50
2019-01-24T09:53:03.822Z,-2.70
2019-01-24T09:55:35.530Z,-2.80
2019-01-24T09:58:04.636Z,-2.80
2019-01-24T10:00:35.240Z,-2.60
2019-01-24T10:03:04.597Z,-2.50
2019-01-24T10:05:33.479Z,-2.50
2019-01-24T10:08:02.774Z,-2.30
2019-01-24T10:10:31.712Z,-2.30
2019-01-24T10:13:00.432Z,-2.10
2019-01-24T10:15:29.159Z,-2.10
2019-01-24T10:17:57.924Z,-2.20
2019-01-24T10:20:27.329Z,-2.30
2019-01-24T10:22:56.202Z,-2.20
2019-01-24T10:25:27.403Z,-2.30
2019-01-24T10:27:56.159Z,-2.20
2019-01-24T10:30:24.960Z,-2.20
2019-01-24T10:32:53.757Z,-2.20
2019-01-24T10:35:22.525Z,-2.10
2019-01-24T10:37:51.254Z,-2.10
2019-01-24T10:40:22.156Z,-2.00
2019-01-24T10:42:50.872Z,-1.90
2019-01-24T10:45:20.142Z,-2.00
2019-01-24T10:47:49.033Z,-2.10
2019-01-24T10:50:18.296Z,-2.00
2019-01-24T10:52:46.993Z,-2.30
2019-01-24T10:55:20.129Z,-2.30
2019-01-24T10:57:49.111Z,-2.20
2019-01-24T11:00:20.691Z,-2.10
2019-01-24T11:02:49.662Z,-2.00
2019-01-24T11:05:18.526Z,-1.90
2019-01-24T11:07:47.359Z,-1.90
2019-01-24T11:10:17.046Z,-1.80
2019-01-24T11:12:45.888Z,-1.80
2019-01-24T11:15:16.820Z,-1.70
2019-01-24T11:17:45.541Z,-1.70
2019-01-24T11:20:14.789Z,-1.80
2019-01-24T11:22:43.540Z,-1.80
2019-01-24T11:25:14.623Z,-1.80
2019-01-24T11:27:43.441Z,-1.80
2019-01-24T11:30:14.807Z,-1.70
2019-01-24T11:32:43.537Z,-1.80
2019-01-24T11:35:15.234Z,-1.80
2019-01-24T11:37:44.083Z,-1.60
2019-01-24T11:40:14.472Z,-1.90
2019-01-24T11:42:43.349Z,-1.80
2019-01-24T11:45:12.615Z,-1.80
2019-01-24T11:47:41.353Z,-1.80
2019-01-24T11:50:15.563Z,-1.80
2019-01-24T11:52:44.508Z,-2.10
2019-01-24T11:55:14.211Z,-2.00
2019-01-24T11:57:42.910Z,-1.90
2019-01-24T12:00:23.401Z,-1.90
2019-01-24T12:02:52.229Z,-1.80
2019-01-24T12:05:21.133Z,-1.80
2019-01-24T12:07:49.845Z,-1.80
2019-01-24T12:10:20.401Z,-1.90
2019-01-24T12:12:49.370Z,-1.90
2019-01-24T12:15:19.449Z,-1.80
2019-01-24T12:17:48.209Z,-1.80
2019-01-24T12:20:18.394Z,-1.80
2019-01-24T12:22:47.280Z,-1.90
2019-01-24T12:25:16.091Z,-2.00
2019-01-24T12:27:44.935Z,-1.90
2019-01-24T12:30:19.566Z,-1.90
2019-01-24T12:32:48.343Z,-1.90
2019-01-24T12:35:17.403Z,-1.80
2019-01-24T12:37:46.169Z,-1.80
2019-01-24T12:40:15.071Z,-1.80
2019-01-24T12:42:43.791Z,-1.80
2019-01-24T12:45:15.302Z,-1.90
2019-01-24T12:47:44.014Z,-1.70
2019-01-24T12:50:13.930Z,-1.90
2019-01-24T12:52:42.774Z,-1.80
2019-01-24T12:55:12.063Z,-1.80
2019-01-24T12:57:40.824Z,-1.90
2019-01-24T13:00:18.095Z,-1.80
2019-01-24T13:02:47.152Z,-1.70
2019-01-24T13:05:16.032Z,-1.80
2019-01-24T13:07:44.870Z,-1.70
2019-01-24T13:10:15.965Z,-1.70
2019-01-24T13:12:44.804Z,-1.70
2019-01-24T13:15:15.233Z,-1.70
2019-01-24T13:17:44.087Z,-1.60
2019-01-24T13:20:14.160Z,-1.60
2019-01-24T13:22:43.181Z,-1.50
2019-01-24T13:25:20.630Z,-1.60
2019-01-24T13:27:50.759Z,-1.50
2019-01-24T13:30:24.763Z,-1.50
2019-01-24T13:32:53.579Z,-1.50
2019-01-24T13:35:22.366Z,-1.70
2019-01-24T13:37:51.287Z,-1.70
2019-01-24T13:40:22.064Z,-1.60
2019-01-24T13:42:52.372Z,-1.70
2019-01-24T13:45:23.766Z,-1.60
2019-01-24T13:47:55.530Z,-1.50
2019-01-24T13:50:24.987Z,-1.70
2019-01-24T13:52:53.931Z,-1.80
2019-01-24T13:55:22.948Z,-1.90
2019-01-24T13:57:51.849Z,-1.90
2019-01-24T14:00:31.968Z,-1.90
2019-01-24T14:03:06.955Z,-2.10
2019-01-24T14:05:35.933Z,-2.00
2019-01-24T14:08:07.570Z,-2.10
2019-01-24T14:10:36.342Z,-2.10
2019-01-24T14:13:05.617Z,-2.10
2019-01-24T14:15:34.482Z,-2.10
2019-01-24T14:18:03.836Z,-2.00
2019-01-24T14:20:32.673Z,-2.00
2019-01-24T14:23:01.437Z,-2.00
2019-01-24T14:25:30.175Z,-2.00
2019-01-24T14:27:58.983Z,-1.90
2019-01-24T14:30:27.856Z,-2.00
2019-01-24T14:32:56.694Z,-2.00
2019-01-24T14:35:25.647Z,-2.10
2019-01-24T14:37:54.698Z,-2.00
2019-01-24T14:40:23.548Z,-2.10
2019-01-24T14:42:52.245Z,-2.00
2019-01-24T14:45:22.699Z,-2.10
2019-01-24T14:47:51.392Z,-2.20
2019-01-24T14:50:24.050Z,-2.20
2019-01-24T14:52:52.768Z,-2.10
2019-01-24T14:55:21.588Z,-2.20
2019-01-24T14:57:50.340Z,-2.20
2019-01-24T15:00:30.989Z,-2.20
2019-01-24T15:02:59.837Z,-2.10
2019-01-24T15:05:28.572Z,-2.10
2019-01-24T15:07:57.547Z,-2.00
2019-01-24T15:10:26.345Z,-2.20
2019-01-24T15:12:55.056Z,-2.10
2019-01-24T15:15:23.790Z,-2.10
2019-01-24T15:17:52.523Z,-2.10
2019-01-24T15:20:21.363Z,-2.10
2019-01-24T15:22:50.077Z,-2.10
2019-01-24T15:25:18.823Z,-2.00
2019-01-24T15:27:47.556Z,-2.00
2019-01-24T15:30:18.754Z,-2.00
2019-01-24T15:32:47.461Z,-2.10
2019-01-24T15:35:16.154Z,-2.10
2019-01-24T15:37:45.253Z,-2.10
2019-01-24T15:40:16.783Z,-2.20
2019-01-24T15:42:46.402Z,-2.10
2019-01-24T15:45:15.402Z,-2.10
2019-01-24T15:47:44.256Z,-2.20
2019-01-24T15:50:14.496Z,-2.10
2019-01-24T15:52:43.213Z,-2.20
2019-01-24T15:55:11.948Z,-2.30
2019-01-24T15:57:40.894Z,-2.30
2019-01-24T16:00:20.811Z,-2.30
2019-01-24T16:02:49.554Z,-2.30
2019-01-24T16:05:18.360Z,-2.30
2019-01-24T16:07:47.080Z,-2.30
2019-01-24T16:10:16.799Z,-2.40
2019-01-24T16:12:45.870Z,-2.40
2019-01-24T16:15:17.383Z,-2.40
2019-01-24T16:17:46.239Z,-2.40
2019-01-24T16:20:16.972Z,-2.40
2019-01-24T16:22:45.714Z,-2.40
2019-01-24T16:25:15.003Z,-2.40
2019-01-24T16:27:43.737Z,-2.40
2019-01-24T16:30:23.800Z,-2.50
2019-01-24T16:32:52.522Z,-2.50
2019-01-24T16:35:21.651Z,-2.40
2019-01-24T16:37:50.443Z,-2.30
2019-01-24T16:40:20.486Z,-2.40
2019-01-24T16:42:49.279Z,-2.30
2019-01-24T16:45:19.992Z,-2.40
2019-01-24T16:47:48.921Z,-2.40
2019-01-24T16:50:17.954Z,-2.40
2019-01-24T16:52:46.753Z,-2.50
2019-01-24T16:55:15.825Z,-2.50
2019-01-24T16:57:44.952Z,-2.60
2019-01-24T17:00:20.173Z,-2.60
2019-01-24T17:02:49.181Z,-2.60
2019-01-24T17:05:18.372Z,-2.50
2019-01-24T17:07:47.416Z,-2.60
2019-01-24T17:10:17.482Z,-2.60
2019-01-24T17:12:46.207Z,-2.60
2019-01-24T17:15:16.085Z,-2.50
2019-01-24T17:17:45.096Z,-2.40
2019-01-24T17:20:19.365Z,-2.40
2019-01-24T17:22:48.124Z,-2.40
2019-01-24T17:25:17.717Z,-2.40
2019-01-24T17:27:46.598Z,-2.30
2019-01-24T17:30:18.753Z,-2.40
2019-01-24T17:32:47.868Z,-2.30
2019-01-24T17:35:16.656Z,-2.30
2019-01-24T17:37:45.377Z,-2.30
2019-01-24T17:40:20.047Z,-2.40
2019-01-24T17:42:49.110Z,-2.30
2019-01-24T17:45:17.982Z,-2.40
2019-01-24T17:47:46.768Z,-2.50
2019-01-24T17:50:15.713Z,-2.60
2019-01-24T17:52:45.035Z,-2.60
2019-01-24T17:55:16.219Z,-2.50
2019-01-24T17:57:46.926Z,-2.50
2019-01-24T18:00:18.332Z,-2.50
2019-01-24T18:02:47.293Z,-2.60
2019-01-24T18:05:16.322Z,-2.60
2019-01-24T18:07:54.554Z,-2.50
2019-01-24T18:10:24.570Z,-2.60
2019-01-24T18:12:53.667Z,-2.50
2019-01-24T18:15:27.304Z,-2.40
2019-01-24T18:17:56.412Z,-2.40
2019-01-24T18:20:27.301Z,-2.50
2019-01-24T18:22:56.022Z,-2.40
2019-01-24T18:25:24.926Z,-2.50
2019-01-24T18:27:53.848Z,-2.60
2019-01-24T18:30:24.440Z,-2.50
2019-01-24T18:32:53.276Z,-2.50
2019-01-24T18:35:22.063Z,-2.50
2019-01-24T18:37:50.932Z,-2.50
2019-01-24T18:40:21.200Z,-2.40
2019-01-24T18:42:50.266Z,-2.50
2019-01-24T18:45:26.241Z,-2.60
2019-01-24T18:47:55.735Z,-2.50
2019-01-24T18:50:25.144Z,-2.50
2019-01-24T18:52:54.178Z,-2.60
2019-01-24T18:55:23.579Z,-2.50
2019-01-24T18:57:52.862Z,-2.60
2019-01-24T19:00:40.173Z,-2.60
2019-01-24T19:03:09.638Z,-2.60
2019-01-24T19:05:39.333Z,-2.70
2019-01-24T19:08:08.483Z,-2.70
2019-01-24T19:10:37.779Z,-2.70
2019-01-24T19:13:07.756Z,-2.70
2019-01-24T19:15:40.343Z,-2.70
2019-01-24T19:18:13.524Z,-2.80
2019-01-24T19:20:42.588Z,-2.80
2019-01-24T19:23:11.718Z,-2.60
2019-01-24T19:25:40.611Z,-2.60
2019-01-24T19:28:20.309Z,-2.60
2019-01-24T19:30:49.375Z,-2.60
2019-01-24T19:33:20.220Z,-2.60
2019-01-24T19:35:49.122Z,-2.40
2019-01-24T19:38:18.618Z,-2.50
2019-01-24T19:40:47.589Z,-2.40
2019-01-24T19:43:18.789Z,-2.30
2019-01-24T19:45:47.702Z,-2.30
2019-01-24T19:48:16.706Z,-2.30
2019-01-24T19:50:45.591Z,-2.40
2019-01-24T19:53:14.518Z,-2.30
2019-01-24T19:55:43.710Z,-2.40
2019-01-24T19:58:12.855Z,-2.40
2019-01-24T20:00:41.986Z,-2.40
2019-01-24T20:03:10.721Z,-2.30
2019-01-24T20:05:39.823Z,-2.40
2019-01-24T20:08:08.958Z,-2.40
2019-01-24T20:10:38.231Z,-2.20
2019-01-24T20:13:09.489Z,-2.30
2019-01-24T20:15:38.473Z,-2.40
2019-01-24T20:18:07.649Z,-2.40
2019-01-24T20:20:37.690Z,-2.50
2019-01-24T20:23:06.709Z,-2.50
2019-01-24T20:25:35.519Z,-2.60
2019-01-24T20:28:05.114Z,-2.60
2019-01-24T20:30:34.722Z,-2.60
2019-01-24T20:33:04.241Z,-2.50
2019-01-24T20:35:39.012Z,-2.50
2019-01-24T20:38:08.694Z,-2.40
2019-01-24T20:40:37.674Z,-2.60
2019-01-24T20:43:07.881Z,-2.70
2019-01-24T20:45:37.163Z,-2.60
2019-01-24T20:48:06.435Z,-2.60
2019-01-24T20:50:35.236Z,-2.40
2019-01-24T20:53:05.945Z,-2.40
2019-01-24T20:55:34.978Z,-2.50
2019-01-24T20:58:03.773Z,-2.60
2019-01-24T21:00:32.691Z,-2.60
2019-01-24T21:03:01.548Z,-2.50
2019-01-24T21:05:30.385Z,-2.30
2019-01-24T21:07:59.252Z,-2.40
2019-01-24T21:10:28.230Z,-2.40
2019-01-24T21:12:57.050Z,-2.40
2019-01-24T21:15:26.995Z,-2.40
2019-01-24T21:17:55.911Z,-2.50
2019-01-24T21:20:26.570Z,-2.50
2019-01-24T21:22:55.660Z,-2.50
2019-01-24T21:25:24.544Z,-2.40
2019-01-24T21:27:53.484Z,-2.40
2019-01-24T21:30:29.697Z,-2.40
2019-01-24T21:33:01.293Z,-2.40
2019-01-24T21:35:30.646Z,-2.50
2019-01-24T21:37:59.504Z,-2.40
2019-01-24T21:40:28.571Z,-2.40
2019-01-24T21:42:57.789Z,-2.30
2019-01-24T21:45:28.519Z,-2.20
2019-01-24T21:47:57.400Z,-2.20
2019-01-24T21:50:26.899Z,-2.40
2019-01-24T21:52:55.693Z,-2.40
2019-01-24T21:55:24.476Z,-2.30
2019-01-24T21:57:53.542Z,-2.40
2019-01-24T22:00:23.614Z,-2.40
2019-01-24T22:02:52.446Z,-2.30
2019-01-24T22:05:21.485Z,-2.20
2019-01-24T22:07:50.250Z,-2.20
2019-01-24T22:10:21.265Z,-2.30
2019-01-24T22:12:50.102Z,-2.20
2019-01-24T22:15:20.330Z,-2.30
2019-01-24T22:17:49.130Z,-2.30
2019-01-24T22:20:17.962Z,-2.20
2019-01-24T22:22:46.791Z,-2.30
2019-01-24T22:25:17.753Z,-2.20
2019-01-24T22:27:46.605Z,-2.20
2019-01-24T22:30:21.610Z,-2.20
2019-01-24T22:32:50.495Z,-2.30
2019-01-24T22:35:19.331Z,-2.20
2019-01-24T22:37:48.258Z,-2.20
2019-01-24T22:40:17.305Z,-2.10
2019-01-24T22:42:46.093Z,-2.10
2019-01-24T22:45:20.038Z,-2.10
2019-01-24T22:47:49.132Z,-2.10
2019-01-24T22:50:17.912Z,-2.20
2019-01-24T22:52:46.799Z,-2.20
2019-01-24T22:55:15.663Z,-2.10
2019-01-24T22:57:44.390Z,-2.10
2019-01-24T23:00:55.398Z,-2.10
2019-01-24T23:03:39.714Z,-2.10
2019-01-24T23:06:08.742Z,-2.10
2019-01-24T23:08:37.503Z,-2.10
2019-01-24T23:11:06.506Z,-2.10
2019-01-24T23:13:35.358Z,-2.10
2019-01-24T23:16:04.306Z,-2.10
2019-01-24T23:18:33.210Z,-2.00
2019-01-24T23:21:02.134Z,-2.00
2019-01-24T23:23:30.982Z,-2.00
2019-01-24T23:25:59.706Z,-2.00
2019-01-24T23:28:28.463Z,-2.00
2019-01-24T23:30:57.271Z,-2.00
2019-01-24T23:33:26.078Z,-1.90
2019-01-24T23:35:54.847Z,-2.20
2019-01-24T23:38:23.618Z,-2.10
2019-01-24T23:40:52.359Z,-2.00
2019-01-24T23:43:21.303Z,-2.00
2019-01-24T23:45:50.044Z,-2.00
2019-01-24T23:48:18.781Z,-2.00
2019-01-24T23:50:47.512Z,-2.00
2019-01-24T23:53:16.264Z,-2.00
2019-01-24T23:55:45.101Z,-1.90
2019-01-24T23:58:13.865Z,-2.00
